sensor_id;sensor_type;location;lat;lon;timestamp;P1;durP1;ratioP1;P2;durP2;ratioP2
7289;SDS011;63176;52.678;13.250;2023-05-06T00:02:00;4.07;;;3.30;;
7289;SDS011;63176;52.678;13.250;2023-05-06T00:04:26;6.23;;;3.10;;
7289;SDS011;63176;52.678;13.250;2023-05-06T00:06:52;10.90;;;4.10;;
7289;SDS011;63176;52.678;13.250;2023-05-06T00:09:18;8.93;;;3.90;;
7289;SDS011;63176;52.678;13.250;2023-05-06T00:11:44;4.17;;;3.53;;
7289;SDS011;63176;52.678;13.250;2023-05-06T00:14:09;12.37;;;4.63;;
7289;SDS011;63176;52.678;13.250;2023-05-06T00:16:36;5.13;;;3.45;;
7289;SDS011;63176;52.678;13.250;2023-05-06T00:19:01;8.57;;;3.13;;
7289;SDS011;63176;52.678;13.250;2023-05-06T00:21:30;8.75;;;3.70;;
7289;SDS011;63176;52.678;13.250;2023-05-06T00:23:56;6.40;;;3.40;;
7289;SDS011;63176;52.678;13.250;2023-05-06T00:26:21;8.80;;;4.03;;
7289;SDS011;63176;52.678;13.250;2023-05-06T00:28:47;6.63;;;3.70;;
7289;SDS011;63176;52.678;13.250;2023-05-06T00:31:13;7.97;;;4.37;;
7289;SDS011;63176;52.678;13.250;2023-05-06T00:33:39;9.10;;;3.87;;
7289;SDS011;63176;52.678;13.250;2023-05-06T00:36:05;7.25;;;3.17;;
7289;SDS011;63176;52.678;13.250;2023-05-06T00:38:31;8.90;;;4.10;;
7289;SDS011;63176;52.678;13.250;2023-05-06T00:40:56;5.60;;;3.90;;
7289;SDS011;63176;52.678;13.250;2023-05-06T00:43:22;4.97;;;3.03;;
7289;SDS011;63176;52.678;13.250;2023-05-06T00:45:48;7.93;;;3.47;;
7289;SDS011;63176;52.678;13.250;2023-05-06T00:48:15;5.40;;;3.35;;
7289;SDS011;63176;52.678;13.250;2023-05-06T00:50:41;4.80;;;3.88;;
7289;SDS011;63176;52.678;13.250;2023-05-06T00:53:08;3.80;;;3.45;;
7289;SDS011;63176;52.678;13.250;2023-05-06T00:55:34;5.47;;;3.83;;
7289;SDS011;63176;52.678;13.250;2023-05-06T00:58:01;7.05;;;3.75;;
7289;SDS011;63176;52.678;13.250;2023-05-06T01:00:27;7.95;;;3.90;;
7289;SDS011;63176;52.678;13.250;2023-05-06T01:02:53;5.47;;;3.83;;
7289;SDS011;63176;52.678;13.250;2023-05-06T01:05:19;7.10;;;3.33;;
7289;SDS011;63176;52.678;13.250;2023-05-06T01:07:50;4.10;;;3.05;;
7289;SDS011;63176;52.678;13.250;2023-05-06T01:13:20;4.35;;;3.38;;
7289;SDS011;63176;52.678;13.250;2023-05-06T01:15:55;6.43;;;3.95;;
7289;SDS011;63176;52.678;13.250;2023-05-06T01:18:24;5.80;;;3.05;;
7289;SDS011;63176;52.678;13.250;2023-05-06T01:20:51;4.60;;;3.85;;
7289;SDS011;63176;52.678;13.250;2023-05-06T01:23:18;5.03;;;3.50;;
7289;SDS011;63176;52.678;13.250;2023-05-06T01:25:44;7.03;;;3.00;;
7289;SDS011;63176;52.678;13.250;2023-05-06T01:28:10;4.03;;;2.97;;
7289;SDS011;63176;52.678;13.250;2023-05-06T01:33:44;4.20;;;3.38;;
7289;SDS011;63176;52.678;13.250;2023-05-06T01:41:54;5.25;;;3.45;;
7289;SDS011;63176;52.678;13.250;2023-05-06T01:44:21;4.03;;;3.25;;
7289;SDS011;63176;52.678;13.250;2023-05-06T01:46:48;3.40;;;3.10;;
7289;SDS011;63176;52.678;13.250;2023-05-06T01:49:15;5.32;;;3.22;;
7289;SDS011;63176;52.678;13.250;2023-05-06T01:51:46;5.68;;;3.70;;
7289;SDS011;63176;52.678;13.250;2023-05-06T01:54:12;4.55;;;3.08;;
7289;SDS011;63176;52.678;13.250;2023-05-06T01:56:38;6.77;;;3.20;;
7289;SDS011;63176;52.678;13.250;2023-05-06T01:59:04;5.00;;;3.70;;
7289;SDS011;63176;52.678;13.250;2023-05-06T02:01:30;4.20;;;2.92;;
7289;SDS011;63176;52.678;13.250;2023-05-06T02:03:56;7.53;;;3.20;;
7289;SDS011;63176;52.678;13.250;2023-05-06T02:06:21;6.10;;;3.10;;
7289;SDS011;63176;52.678;13.250;2023-05-06T02:08:47;4.97;;;3.50;;
7289;SDS011;63176;52.678;13.250;2023-05-06T02:11:13;4.20;;;3.38;;
7289;SDS011;63176;52.678;13.250;2023-05-06T02:13:39;8.20;;;3.00;;
7289;SDS011;63176;52.678;13.250;2023-05-06T02:16:05;4.93;;;3.80;;
7289;SDS011;63176;52.678;13.250;2023-05-06T02:18:31;5.40;;;2.87;;
7289;SDS011;63176;52.678;13.250;2023-05-06T02:20:57;5.57;;;3.50;;
7289;SDS011;63176;52.678;13.250;2023-05-06T02:23:22;5.93;;;3.10;;
7289;SDS011;63176;52.678;13.250;2023-05-06T02:25:48;3.30;;;2.80;;
7289;SDS011;63176;52.678;13.250;2023-05-06T02:28:14;2.80;;;2.60;;
7289;SDS011;63176;52.678;13.250;2023-05-06T02:30:39;4.90;;;3.27;;
7289;SDS011;63176;52.678;13.250;2023-05-06T02:33:05;5.20;;;3.60;;
7289;SDS011;63176;52.678;13.250;2023-05-06T02:35:31;6.93;;;3.17;;
7289;SDS011;63176;52.678;13.250;2023-05-06T02:37:57;3.33;;;3.03;;
7289;SDS011;63176;52.678;13.250;2023-05-06T02:40:23;4.35;;;2.92;;
7289;SDS011;63176;52.678;13.250;2023-05-06T02:42:49;6.60;;;3.70;;
7289;SDS011;63176;52.678;13.250;2023-05-06T02:45:14;3.73;;;2.80;;
7289;SDS011;63176;52.678;13.250;2023-05-06T02:47:40;3.80;;;2.80;;
7289;SDS011;63176;52.678;13.250;2023-05-06T02:50:06;6.20;;;3.40;;
7289;SDS011;63176;52.678;13.250;2023-05-06T02:52:32;5.43;;;3.37;;
7289;SDS011;63176;52.678;13.250;2023-05-06T02:54:58;3.63;;;3.08;;
7289;SDS011;63176;52.678;13.250;2023-05-06T02:57:24;4.78;;;3.00;;
7289;SDS011;63176;52.678;13.250;2023-05-06T02:59:50;4.47;;;3.27;;
7289;SDS011;63176;52.678;13.250;2023-05-06T03:02:16;5.40;;;3.70;;
7289;SDS011;63176;52.678;13.250;2023-05-06T03:04:44;3.73;;;3.03;;
7289;SDS011;63176;52.678;13.250;2023-05-06T03:07:10;7.70;;;3.30;;
7289;SDS011;63176;52.678;13.250;2023-05-06T03:09:37;8.35;;;2.67;;
7289;SDS011;63176;52.678;13.250;2023-05-06T03:12:03;10.73;;;3.20;;
7289;SDS011;63176;52.678;13.250;2023-05-06T03:14:30;10.25;;;2.90;;
7289;SDS011;63176;52.678;13.250;2023-05-06T03:16:56;6.57;;;3.03;;
7289;SDS011;63176;52.678;13.250;2023-05-06T03:19:21;6.73;;;2.90;;
7289;SDS011;63176;52.678;13.250;2023-05-06T03:21:47;6.93;;;3.33;;
7289;SDS011;63176;52.678;13.250;2023-05-06T03:24:13;5.00;;;3.20;;
7289;SDS011;63176;52.678;13.250;2023-05-06T03:26:39;6.47;;;3.30;;
7289;SDS011;63176;52.678;13.250;2023-05-06T03:29:04;7.00;;;3.37;;
7289;SDS011;63176;52.678;13.250;2023-05-06T03:31:30;8.50;;;2.90;;
7289;SDS011;63176;52.678;13.250;2023-05-06T03:33:56;4.90;;;3.33;;
7289;SDS011;63176;52.678;13.250;2023-05-06T03:36:21;4.10;;;2.57;;
7289;SDS011;63176;52.678;13.250;2023-05-06T03:38:52;10.57;;;3.45;;
7289;SDS011;63176;52.678;13.250;2023-05-06T03:41:18;5.22;;;2.90;;
7289;SDS011;63176;52.678;13.250;2023-05-06T03:43:43;10.43;;;3.00;;
7289;SDS011;63176;52.678;13.250;2023-05-06T03:46:09;8.40;;;3.40;;
7289;SDS011;63176;52.678;13.250;2023-05-06T03:48:35;5.40;;;3.67;;
7289;SDS011;63176;52.678;13.250;2023-05-06T03:51:01;3.67;;;2.30;;
7289;SDS011;63176;52.678;13.250;2023-05-06T03:53:27;12.67;;;4.27;;
7289;SDS011;63176;52.678;13.250;2023-05-06T03:55:53;7.70;;;3.50;;
7289;SDS011;63176;52.678;13.250;2023-05-06T03:58:18;5.90;;;2.97;;
7289;SDS011;63176;52.678;13.250;2023-05-06T04:00:45;8.13;;;3.40;;
7289;SDS011;63176;52.678;13.250;2023-05-06T04:03:10;6.83;;;2.97;;
7289;SDS011;63176;52.678;13.250;2023-05-06T04:05:36;4.50;;;3.70;;
7289;SDS011;63176;52.678;13.250;2023-05-06T04:08:02;4.20;;;3.00;;
7289;SDS011;63176;52.678;13.250;2023-05-06T04:10:28;5.10;;;3.20;;
7289;SDS011;63176;52.678;13.250;2023-05-06T04:12:53;6.20;;;3.60;;
7289;SDS011;63176;52.678;13.250;2023-05-06T04:15:19;5.10;;;3.03;;
7289;SDS011;63176;52.678;13.250;2023-05-06T04:17:45;4.60;;;2.80;;
7289;SDS011;63176;52.678;13.250;2023-05-06T04:20:11;14.10;;;3.30;;
7289;SDS011;63176;52.678;13.250;2023-05-06T04:22:38;5.40;;;3.22;;
7289;SDS011;63176;52.678;13.250;2023-05-06T04:25:04;4.53;;;3.30;;
7289;SDS011;63176;52.678;13.250;2023-05-06T04:27:30;4.35;;;2.88;;
7289;SDS011;63176;52.678;13.250;2023-05-06T04:29:56;7.33;;;2.87;;
7289;SDS011;63176;52.678;13.250;2023-05-06T04:32:22;5.70;;;2.83;;
7289;SDS011;63176;52.678;13.250;2023-05-06T04:34:51;6.75;;;3.50;;
7289;SDS011;63176;52.678;13.250;2023-05-06T04:37:20;4.38;;;3.45;;
7289;SDS011;63176;52.678;13.250;2023-05-06T04:39:46;5.90;;;3.47;;
7289;SDS011;63176;52.678;13.250;2023-05-06T04:42:12;5.30;;;3.00;;
7289;SDS011;63176;52.678;13.250;2023-05-06T04:44:39;4.25;;;2.90;;
7289;SDS011;63176;52.678;13.250;2023-05-06T04:47:05;3.38;;;3.00;;
7289;SDS011;63176;52.678;13.250;2023-05-06T04:49:31;5.90;;;2.87;;
7289;SDS011;63176;52.678;13.250;2023-05-06T04:51:57;5.00;;;3.23;;
7289;SDS011;63176;52.678;13.250;2023-05-06T04:54:22;4.50;;;3.63;;
7289;SDS011;63176;52.678;13.250;2023-05-06T04:56:49;4.93;;;3.40;;
7289;SDS011;63176;52.678;13.250;2023-05-06T04:59:15;4.18;;;3.13;;
7289;SDS011;63176;52.678;13.250;2023-05-06T05:01:41;7.80;;;3.00;;
7289;SDS011;63176;52.678;13.250;2023-05-06T05:04:09;6.63;;;3.53;;
7289;SDS011;63176;52.678;13.250;2023-05-06T05:06:35;6.45;;;3.22;;
7289;SDS011;63176;52.678;13.250;2023-05-06T05:09:01;4.13;;;2.83;;
7289;SDS011;63176;52.678;13.250;2023-05-06T05:11:26;5.03;;;3.13;;
7289;SDS011;63176;52.678;13.250;2023-05-06T05:13:52;5.10;;;3.13;;
7289;SDS011;63176;52.678;13.250;2023-05-06T05:16:18;5.30;;;3.10;;
7289;SDS011;63176;52.678;13.250;2023-05-06T05:18:44;7.40;;;3.97;;
7289;SDS011;63176;52.678;13.250;2023-05-06T05:21:09;5.33;;;3.80;;
7289;SDS011;63176;52.678;13.250;2023-05-06T05:23:35;6.03;;;3.60;;
7289;SDS011;63176;52.678;13.250;2023-05-06T05:26:01;8.17;;;3.60;;
7289;SDS011;63176;52.678;13.250;2023-05-06T05:28:27;7.60;;;4.38;;
7289;SDS011;63176;52.678;13.250;2023-05-06T05:30:53;6.50;;;3.80;;
7289;SDS011;63176;52.678;13.250;2023-05-06T05:33:19;4.90;;;3.33;;
7289;SDS011;63176;52.678;13.250;2023-05-06T05:35:44;4.27;;;3.03;;
7289;SDS011;63176;52.678;13.250;2023-05-06T05:38:10;5.57;;;3.57;;
7289;SDS011;63176;52.678;13.250;2023-05-06T05:40:38;5.30;;;3.13;;
7289;SDS011;63176;52.678;13.250;2023-05-06T05:43:03;5.43;;;3.63;;
7289;SDS011;63176;52.678;13.250;2023-05-06T05:45:29;7.50;;;3.70;;
7289;SDS011;63176;52.678;13.250;2023-05-06T05:47:55;4.30;;;3.40;;
7289;SDS011;63176;52.678;13.250;2023-05-06T05:50:20;3.73;;;2.70;;
7289;SDS011;63176;52.678;13.250;2023-05-06T05:52:46;4.10;;;3.13;;
7289;SDS011;63176;52.678;13.250;2023-05-06T05:55:12;7.97;;;3.50;;
7289;SDS011;63176;52.678;13.250;2023-05-06T05:57:38;4.17;;;3.00;;
7289;SDS011;63176;52.678;13.250;2023-05-06T06:00:04;6.30;;;3.87;;
7289;SDS011;63176;52.678;13.250;2023-05-06T06:02:30;6.00;;;3.72;;
7289;SDS011;63176;52.678;13.250;2023-05-06T06:04:58;9.75;;;3.10;;
7289;SDS011;63176;52.678;13.250;2023-05-06T06:07:23;4.47;;;3.40;;
7289;SDS011;63176;52.678;13.250;2023-05-06T06:09:49;4.80;;;3.60;;
7289;SDS011;63176;52.678;13.250;2023-05-06T06:12:15;6.50;;;3.00;;
7289;SDS011;63176;52.678;13.250;2023-05-06T06:14:42;5.35;;;3.42;;
7289;SDS011;63176;52.678;13.250;2023-05-06T06:17:12;5.15;;;3.88;;
7289;SDS011;63176;52.678;13.250;2023-05-06T06:19:39;7.10;;;3.72;;
7289;SDS011;63176;52.678;13.250;2023-05-06T06:22:04;5.73;;;4.20;;
7289;SDS011;63176;52.678;13.250;2023-05-06T06:24:30;4.93;;;3.83;;
7289;SDS011;63176;52.678;13.250;2023-05-06T06:26:58;5.80;;;3.20;;
7289;SDS011;63176;52.678;13.250;2023-05-06T06:29:25;5.72;;;4.05;;
7289;SDS011;63176;52.678;13.250;2023-05-06T06:31:51;4.90;;;3.60;;
7289;SDS011;63176;52.678;13.250;2023-05-06T06:34:17;9.33;;;4.30;;
7289;SDS011;63176;52.678;13.250;2023-05-06T06:36:42;9.77;;;4.10;;
7289;SDS011;63176;52.678;13.250;2023-05-06T06:39:09;3.83;;;3.35;;
7289;SDS011;63176;52.678;13.250;2023-05-06T06:41:36;4.15;;;3.75;;
7289;SDS011;63176;52.678;13.250;2023-05-06T06:44:02;6.67;;;4.23;;
7289;SDS011;63176;52.678;13.250;2023-05-06T06:46:28;5.38;;;4.20;;
7289;SDS011;63176;52.678;13.250;2023-05-06T06:48:54;6.77;;;3.73;;
7289;SDS011;63176;52.678;13.250;2023-05-06T06:51:20;5.33;;;4.00;;
7289;SDS011;63176;52.678;13.250;2023-05-06T06:53:45;7.07;;;4.27;;
7289;SDS011;63176;52.678;13.250;2023-05-06T06:56:13;8.20;;;3.90;;
7289;SDS011;63176;52.678;13.250;2023-05-06T06:58:40;7.15;;;3.80;;
7289;SDS011;63176;52.678;13.250;2023-05-06T07:01:05;6.97;;;4.87;;
7289;SDS011;63176;52.678;13.250;2023-05-06T07:03:31;7.27;;;3.90;;
7289;SDS011;63176;52.678;13.250;2023-05-06T07:05:57;5.80;;;4.03;;
7289;SDS011;63176;52.678;13.250;2023-05-06T07:08:23;9.00;;;3.90;;
7289;SDS011;63176;52.678;13.250;2023-05-06T07:10:49;8.90;;;4.03;;
7289;SDS011;63176;52.678;13.250;2023-05-06T07:13:14;5.07;;;4.40;;
7289;SDS011;63176;52.678;13.250;2023-05-06T07:15:40;5.97;;;3.80;;
7289;SDS011;63176;52.678;13.250;2023-05-06T07:18:06;7.75;;;4.15;;
7289;SDS011;63176;52.678;13.250;2023-05-06T07:20:32;6.10;;;4.33;;
7289;SDS011;63176;52.678;13.250;2023-05-06T07:22:58;8.03;;;4.70;;
7289;SDS011;63176;52.678;13.250;2023-05-06T07:25:23;6.63;;;4.10;;
7289;SDS011;63176;52.678;13.250;2023-05-06T07:27:49;6.97;;;4.38;;
7289;SDS011;63176;52.678;13.250;2023-05-06T07:30:15;8.53;;;3.60;;
7289;SDS011;63176;52.678;13.250;2023-05-06T07:32:41;5.50;;;3.90;;
7289;SDS011;63176;52.678;13.250;2023-05-06T07:35:07;4.80;;;4.10;;
7289;SDS011;63176;52.678;13.250;2023-05-06T07:37:33;6.07;;;4.15;;
7289;SDS011;63176;52.678;13.250;2023-05-06T07:39:59;5.30;;;4.20;;
7289;SDS011;63176;52.678;13.250;2023-05-06T07:42:24;5.03;;;4.40;;
7289;SDS011;63176;52.678;13.250;2023-05-06T07:44:50;5.73;;;4.53;;
7289;SDS011;63176;52.678;13.250;2023-05-06T07:47:23;5.97;;;4.70;;
7289;SDS011;63176;52.678;13.250;2023-05-06T07:49:51;6.00;;;4.25;;
7289;SDS011;63176;52.678;13.250;2023-05-06T07:52:16;6.60;;;4.50;;
7289;SDS011;63176;52.678;13.250;2023-05-06T07:54:42;8.23;;;5.00;;
7289;SDS011;63176;52.678;13.250;2023-05-06T07:57:08;5.53;;;4.80;;
7289;SDS011;63176;52.678;13.250;2023-05-06T07:59:33;5.63;;;4.23;;
7289;SDS011;63176;52.678;13.250;2023-05-06T08:01:59;8.43;;;5.03;;
7289;SDS011;63176;52.678;13.250;2023-05-06T08:04:25;4.78;;;3.80;;
7289;SDS011;63176;52.678;13.250;2023-05-06T08:06:50;9.20;;;4.70;;
7289;SDS011;63176;52.678;13.250;2023-05-06T08:09:17;7.57;;;4.68;;
7289;SDS011;63176;52.678;13.250;2023-05-06T08:11:43;7.53;;;4.57;;
7289;SDS011;63176;52.678;13.250;2023-05-06T08:14:09;5.87;;;4.67;;
7289;SDS011;63176;52.678;13.250;2023-05-06T08:16:36;5.15;;;4.65;;
7289;SDS011;63176;52.678;13.250;2023-05-06T08:19:02;8.27;;;5.23;;
7289;SDS011;63176;52.678;13.250;2023-05-06T08:21:27;10.30;;;5.27;;
7289;SDS011;63176;52.678;13.250;2023-05-06T08:23:53;4.90;;;3.93;;
7289;SDS011;63176;52.678;13.250;2023-05-06T08:26:19;10.30;;;4.97;;
7289;SDS011;63176;52.678;13.250;2023-05-06T08:28:45;6.53;;;4.72;;
7289;SDS011;63176;52.678;13.250;2023-05-06T08:31:11;8.70;;;4.80;;
7289;SDS011;63176;52.678;13.250;2023-05-06T08:33:36;5.27;;;4.77;;
7289;SDS011;63176;52.678;13.250;2023-05-06T08:36:02;6.53;;;4.83;;
7289;SDS011;63176;52.678;13.250;2023-05-06T08:38:28;7.53;;;5.40;;
7289;SDS011;63176;52.678;13.250;2023-05-06T08:40:53;5.50;;;5.00;;
7289;SDS011;63176;52.678;13.250;2023-05-06T08:43:23;7.57;;;4.38;;
7289;SDS011;63176;52.678;13.250;2023-05-06T08:45:51;6.82;;;4.25;;
7289;SDS011;63176;52.678;13.250;2023-05-06T08:48:17;7.10;;;4.77;;
7289;SDS011;63176;52.678;13.250;2023-05-06T08:50:42;5.53;;;4.33;;
7289;SDS011;63176;52.678;13.250;2023-05-06T08:53:12;7.57;;;4.97;;
7289;SDS011;63176;52.678;13.250;2023-05-06T08:55:41;7.03;;;5.30;;
7289;SDS011;63176;52.678;13.250;2023-05-06T08:58:09;5.88;;;5.10;;
7289;SDS011;63176;52.678;13.250;2023-05-06T09:00:37;6.05;;;5.25;;
7289;SDS011;63176;52.678;13.250;2023-05-06T09:03:03;6.17;;;4.90;;
7289;SDS011;63176;52.678;13.250;2023-05-06T09:05:29;5.63;;;4.97;;
7289;SDS011;63176;52.678;13.250;2023-05-06T09:07:55;6.30;;;4.77;;
7289;SDS011;63176;52.678;13.250;2023-05-06T09:10:21;6.27;;;4.97;;
7289;SDS011;63176;52.678;13.250;2023-05-06T09:12:46;7.80;;;4.67;;
7289;SDS011;63176;52.678;13.250;2023-05-06T09:15:12;6.90;;;5.40;;
7289;SDS011;63176;52.678;13.250;2023-05-06T09:17:38;6.03;;;4.70;;
7289;SDS011;63176;52.678;13.250;2023-05-06T09:20:04;7.20;;;5.10;;
7289;SDS011;63176;52.678;13.250;2023-05-06T09:22:35;10.85;;;5.13;;
7289;SDS011;63176;52.678;13.250;2023-05-06T09:25:03;8.70;;;5.30;;
7289;SDS011;63176;52.678;13.250;2023-05-06T09:27:32;6.40;;;5.40;;
7289;SDS011;63176;52.678;13.250;2023-05-06T09:29:59;8.05;;;5.13;;
7289;SDS011;63176;52.678;13.250;2023-05-06T09:32:29;5.38;;;4.88;;
7289;SDS011;63176;52.678;13.250;2023-05-06T09:34:56;13.90;;;5.15;;
7289;SDS011;63176;52.678;13.250;2023-05-06T09:37:22;7.50;;;5.70;;
7289;SDS011;63176;52.678;13.250;2023-05-06T09:39:50;7.00;;;5.35;;
7289;SDS011;63176;52.678;13.250;2023-05-06T09:42:20;5.90;;;4.72;;
7289;SDS011;63176;52.678;13.250;2023-05-06T09:44:51;11.07;;;5.82;;
7289;SDS011;63176;52.678;13.250;2023-05-06T09:47:21;7.13;;;5.55;;
7289;SDS011;63176;52.678;13.250;2023-05-06T09:49:48;6.50;;;4.47;;
7289;SDS011;63176;52.678;13.250;2023-05-06T09:52:14;7.53;;;5.03;;
7289;SDS011;63176;52.678;13.250;2023-05-06T09:54:40;7.70;;;5.07;;
7289;SDS011;63176;52.678;13.250;2023-05-06T09:57:06;9.50;;;4.75;;
7289;SDS011;63176;52.678;13.250;2023-05-06T09:59:34;6.80;;;4.70;;
7289;SDS011;63176;52.678;13.250;2023-05-06T10:02:00;6.68;;;5.35;;
7289;SDS011;63176;52.678;13.250;2023-05-06T10:04:26;10.15;;;5.28;;
7289;SDS011;63176;52.678;13.250;2023-05-06T10:06:54;9.73;;;5.72;;
7289;SDS011;63176;52.678;13.250;2023-05-06T10:09:25;6.10;;;5.35;;
7289;SDS011;63176;52.678;13.250;2023-05-06T10:11:52;6.18;;;5.35;;
7289;SDS011;63176;52.678;13.250;2023-05-06T10:14:18;8.23;;;6.30;;
7289;SDS011;63176;52.678;13.250;2023-05-06T10:16:47;8.20;;;5.67;;
7289;SDS011;63176;52.678;13.250;2023-05-06T10:19:14;9.05;;;5.65;;
7289;SDS011;63176;52.678;13.250;2023-05-06T10:21:48;6.55;;;4.75;;
7289;SDS011;63176;52.678;13.250;2023-05-06T10:24:21;6.40;;;4.60;;
7289;SDS011;63176;52.678;13.250;2023-05-06T10:26:50;6.80;;;4.65;;
7289;SDS011;63176;52.678;13.250;2023-05-06T10:29:20;6.78;;;5.13;;
7289;SDS011;63176;52.678;13.250;2023-05-06T10:31:51;6.97;;;4.72;;
7289;SDS011;63176;52.678;13.250;2023-05-06T10:34:19;6.43;;;4.88;;
7289;SDS011;63176;52.678;13.250;2023-05-06T10:36:47;8.10;;;5.28;;
7289;SDS011;63176;52.678;13.250;2023-05-06T10:39:15;5.57;;;4.68;;
7289;SDS011;63176;52.678;13.250;2023-05-06T10:41:41;5.25;;;4.75;;
7289;SDS011;63176;52.678;13.250;2023-05-06T10:44:07;6.80;;;4.70;;
7289;SDS011;63176;52.678;13.250;2023-05-06T10:46:56;5.63;;;4.45;;
7289;SDS011;63176;52.678;13.250;2023-05-06T10:49:26;5.05;;;4.20;;
7289;SDS011;63176;52.678;13.250;2023-05-06T10:52:09;4.78;;;3.83;;
7289;SDS011;63176;52.678;13.250;2023-05-06T10:54:47;4.82;;;4.35;;
7289;SDS011;63176;52.678;13.250;2023-05-06T10:57:14;5.03;;;4.05;;
7289;SDS011;63176;52.678;13.250;2023-05-06T10:59:44;11.13;;;4.53;;
7289;SDS011;63176;52.678;13.250;2023-05-06T11:02:11;4.32;;;3.92;;
7289;SDS011;63176;52.678;13.250;2023-05-06T11:04:37;5.00;;;4.38;;
7289;SDS011;63176;52.678;13.250;2023-05-06T11:07:14;4.65;;;3.90;;
7289;SDS011;63176;52.678;13.250;2023-05-06T11:12:57;5.35;;;4.85;;
7289;SDS011;63176;52.678;13.250;2023-05-06T11:15:26;6.18;;;4.72;;
7289;SDS011;63176;52.678;13.250;2023-05-06T11:20:48;5.00;;;4.03;;
7289;SDS011;63176;52.678;13.250;2023-05-06T11:23:14;4.70;;;4.05;;
7289;SDS011;63176;52.678;13.250;2023-05-06T11:25:43;4.57;;;3.60;;
7289;SDS011;63176;52.678;13.250;2023-05-06T11:28:11;4.43;;;4.00;;
7289;SDS011;63176;52.678;13.250;2023-05-06T11:30:39;4.70;;;3.97;;
7289;SDS011;63176;52.678;13.250;2023-05-06T11:33:06;4.40;;;3.75;;
7289;SDS011;63176;52.678;13.250;2023-05-06T11:35:34;5.85;;;3.80;;
7289;SDS011;63176;52.678;13.250;2023-05-06T11:38:02;4.82;;;3.38;;
7289;SDS011;63176;52.678;13.250;2023-05-06T11:40:29;3.50;;;3.05;;
7289;SDS011;63176;52.678;13.250;2023-05-06T11:42:55;6.47;;;3.17;;
7289;SDS011;63176;52.678;13.250;2023-05-06T11:45:46;8.13;;;3.53;;
7289;SDS011;63176;52.678;13.250;2023-05-06T11:48:15;7.60;;;3.70;;
7289;SDS011;63176;52.678;13.250;2023-05-06T11:50:45;4.20;;;3.80;;
7289;SDS011;63176;52.678;13.250;2023-05-06T11:53:13;5.43;;;3.25;;
7289;SDS011;63176;52.678;13.250;2023-05-06T11:55:42;4.75;;;3.67;;
7289;SDS011;63176;52.678;13.250;2023-05-06T11:58:15;3.90;;;3.50;;
7289;SDS011;63176;52.678;13.250;2023-05-06T12:00:52;5.80;;;3.55;;
7289;SDS011;63176;52.678;13.250;2023-05-06T12:03:22;7.00;;;3.40;;
7289;SDS011;63176;52.678;13.250;2023-05-06T12:05:49;3.33;;;3.00;;
7289;SDS011;63176;52.678;13.250;2023-05-06T12:08:15;3.85;;;3.42;;
7289;SDS011;63176;52.678;13.250;2023-05-06T12:10:51;3.05;;;2.65;;
7289;SDS011;63176;52.678;13.250;2023-05-06T12:13:18;3.60;;;2.80;;
7289;SDS011;63176;52.678;13.250;2023-05-06T12:15:45;6.53;;;3.47;;
7289;SDS011;63176;52.678;13.250;2023-05-06T12:18:12;3.40;;;3.10;;
7289;SDS011;63176;52.678;13.250;2023-05-06T12:20:38;3.75;;;3.03;;
7289;SDS011;63176;52.678;13.250;2023-05-06T12:23:07;6.07;;;3.20;;
7289;SDS011;63176;52.678;13.250;2023-05-06T12:25:36;3.72;;;3.13;;
7289;SDS011;63176;52.678;13.250;2023-05-06T12:28:15;3.60;;;2.88;;
7289;SDS011;63176;52.678;13.250;2023-05-06T12:30:42;3.30;;;2.65;;
7289;SDS011;63176;52.678;13.250;2023-05-06T12:33:08;3.30;;;2.47;;
7289;SDS011;63176;52.678;13.250;2023-05-06T12:35:35;3.83;;;2.95;;
7289;SDS011;63176;52.678;13.250;2023-05-06T12:38:11;4.95;;;3.58;;
7289;SDS011;63176;52.678;13.250;2023-05-06T12:40:38;6.88;;;2.67;;
7289;SDS011;63176;52.678;13.250;2023-05-06T12:43:05;2.70;;;2.50;;
7289;SDS011;63176;52.678;13.250;2023-05-06T12:45:31;3.13;;;2.80;;
7289;SDS011;63176;52.678;13.250;2023-05-06T12:47:58;3.20;;;2.47;;
7289;SDS011;63176;52.678;13.250;2023-05-06T12:50:36;4.20;;;2.80;;
7289;SDS011;63176;52.678;13.250;2023-05-06T12:53:06;2.97;;;2.50;;
7289;SDS011;63176;52.678;13.250;2023-05-06T12:55:34;3.13;;;2.67;;
7289;SDS011;63176;52.678;13.250;2023-05-06T12:58:01;4.13;;;3.45;;
7289;SDS011;63176;52.678;13.250;2023-05-06T13:00:27;4.95;;;3.30;;
7289;SDS011;63176;52.678;13.250;2023-05-06T13:02:54;3.20;;;2.90;;
7289;SDS011;63176;52.678;13.250;2023-05-06T13:05:19;4.73;;;3.53;;
7289;SDS011;63176;52.678;13.250;2023-05-06T13:07:46;3.77;;;3.40;;
7289;SDS011;63176;52.678;13.250;2023-05-06T13:10:12;3.20;;;2.90;;
7289;SDS011;63176;52.678;13.250;2023-05-06T13:12:38;3.23;;;2.93;;
7289;SDS011;63176;52.678;13.250;2023-05-06T13:15:04;3.70;;;3.30;;
7289;SDS011;63176;52.678;13.250;2023-05-06T13:17:30;6.18;;;3.25;;
7289;SDS011;63176;52.678;13.250;2023-05-06T13:19:56;3.60;;;3.07;;
7289;SDS011;63176;52.678;13.250;2023-05-06T13:22:22;3.13;;;2.58;;
7289;SDS011;63176;52.678;13.250;2023-05-06T13:24:48;3.80;;;3.03;;
7289;SDS011;63176;52.678;13.250;2023-05-06T13:27:14;4.10;;;3.40;;
7289;SDS011;63176;52.678;13.250;2023-05-06T13:29:40;3.27;;;2.90;;
7289;SDS011;63176;52.678;13.250;2023-05-06T13:32:06;3.90;;;2.80;;
7289;SDS011;63176;52.678;13.250;2023-05-06T13:34:31;3.57;;;3.03;;
7289;SDS011;63176;52.678;13.250;2023-05-06T13:36:57;4.10;;;2.77;;
7289;SDS011;63176;52.678;13.250;2023-05-06T13:39:23;2.63;;;2.43;;
7289;SDS011;63176;52.678;13.250;2023-05-06T13:41:49;3.20;;;2.90;;
7289;SDS011;63176;52.678;13.250;2023-05-06T13:44:15;3.93;;;2.97;;
7289;SDS011;63176;52.678;13.250;2023-05-06T13:46:44;3.70;;;2.97;;
7289;SDS011;63176;52.678;13.250;2023-05-06T13:49:11;3.50;;;2.88;;
7289;SDS011;63176;52.678;13.250;2023-05-06T13:51:40;6.50;;;3.10;;
7289;SDS011;63176;52.678;13.250;2023-05-06T13:54:06;3.90;;;2.70;;
7289;SDS011;63176;52.678;13.250;2023-05-06T13:56:32;3.53;;;2.70;;
7289;SDS011;63176;52.678;13.250;2023-05-06T13:58:58;4.13;;;2.80;;
7289;SDS011;63176;52.678;13.250;2023-05-06T14:01:24;3.20;;;2.83;;
7289;SDS011;63176;52.678;13.250;2023-05-06T14:03:50;2.65;;;2.45;;
7289;SDS011;63176;52.678;13.250;2023-05-06T14:06:16;3.08;;;2.65;;
7289;SDS011;63176;52.678;13.250;2023-05-06T14:08:42;3.25;;;2.92;;
7289;SDS011;63176;52.678;13.250;2023-05-06T14:11:09;2.35;;;2.13;;
7289;SDS011;63176;52.678;13.250;2023-05-06T14:13:35;6.78;;;2.58;;
7289;SDS011;63176;52.678;13.250;2023-05-06T14:16:01;4.30;;;2.50;;
7289;SDS011;63176;52.678;13.250;2023-05-06T14:18:27;2.93;;;2.53;;
7289;SDS011;63176;52.678;13.250;2023-05-06T14:20:53;2.53;;;1.95;;
7289;SDS011;63176;52.678;13.250;2023-05-06T14:23:20;3.03;;;2.20;;
7289;SDS011;63176;52.678;13.250;2023-05-06T14:25:45;2.47;;;2.07;;
7289;SDS011;63176;52.678;13.250;2023-05-06T14:28:11;2.60;;;2.40;;
7289;SDS011;63176;52.678;13.250;2023-05-06T14:30:38;2.17;;;1.97;;
7289;SDS011;63176;52.678;13.250;2023-05-06T14:33:04;2.40;;;2.20;;
7289;SDS011;63176;52.678;13.250;2023-05-06T14:35:30;2.47;;;2.28;;
7289;SDS011;63176;52.678;13.250;2023-05-06T14:37:56;2.30;;;2.10;;
7289;SDS011;63176;52.678;13.250;2023-05-06T14:40:21;2.90;;;2.43;;
7289;SDS011;63176;52.678;13.250;2023-05-06T14:42:47;2.50;;;2.30;;
7289;SDS011;63176;52.678;13.250;2023-05-06T14:45:13;2.15;;;2.05;;
7289;SDS011;63176;52.678;13.250;2023-05-06T14:47:40;1.92;;;1.80;;
7289;SDS011;63176;52.678;13.250;2023-05-06T14:50:07;2.35;;;2.15;;
7289;SDS011;63176;52.678;13.250;2023-05-06T14:52:34;2.47;;;2.28;;
7289;SDS011;63176;52.678;13.250;2023-05-06T14:55:01;2.45;;;2.25;;
7289;SDS011;63176;52.678;13.250;2023-05-06T14:57:28;1.90;;;1.80;;
7289;SDS011;63176;52.678;13.250;2023-05-06T14:59:53;2.73;;;1.87;;
7289;SDS011;63176;52.678;13.250;2023-05-06T15:02:19;1.73;;;1.63;;
7289;SDS011;63176;52.678;13.250;2023-05-06T15:04:45;1.77;;;1.67;;